BON102 FACT-FAOR
Flight info
| Callsign | BON102 |
|---|---|
| Flight time | 1h 55m |
| Altitude | 35000 |
| Route | TETAN1B TETAN UZ2 NIBEX NIBEX1B |
| Aircraft | A320/M-SDE3FGHIRWY/LB1 |
Departure
| Time | 2026-05-06 15:55 |
|---|---|
| Airport | Cape Town International Airport (FACT) |
Arrival
| Time | 2026-05-06 17:50 |
|---|---|
| Airport | O.R. Tambo International Airport (FAOR) |
| Time | Latitude | Longitude | Altitude | Speed | Heading |
|---|---|---|---|---|---|
| 2026-05-06 15:23 | -33.97228 | 18.59903 | 297 ft | 0 kts | 255° |
| 2026-05-06 15:45 | -33.97224 | 18.59922 | 167 ft | 4 kts | 258° |
| 2026-05-06 15:46 | -33.97221 | 18.59947 | 167 ft | 3 kts | 266° |
| 2026-05-06 15:46 | -33.97222 | 18.59978 | 167 ft | 3 kts | 290° |
| 2026-05-06 15:46 | -33.97234 | 18.59998 | 167 ft | 1 kts | 346° |
| 2026-05-06 15:46 | -33.97239 | 18.60000 | 167 ft | 0 kts | 346° |
| 2026-05-06 15:50 | -33.97213 | 18.59992 | 167 ft | 13 kts | 346° |
| 2026-05-06 15:50 | -33.97114 | 18.59963 | 167 ft | 15 kts | 346° |
| 2026-05-06 15:51 | -33.97006 | 18.59937 | 167 ft | 16 kts | 345° |
| 2026-05-06 15:51 | -33.96894 | 18.59900 | 167 ft | 17 kts | 345° |
| 2026-05-06 15:51 | -33.96771 | 18.59860 | 167 ft | 19 kts | 345° |
| 2026-05-06 15:51 | -33.96647 | 18.59820 | 167 ft | 17 kts | 348° |
| 2026-05-06 15:52 | -33.96530 | 18.59789 | 167 ft | 18 kts | 347° |
| 2026-05-06 15:52 | -33.96408 | 18.59758 | 168 ft | 18 kts | 349° |
| 2026-05-06 15:52 | -33.96281 | 18.59730 | 168 ft | 17 kts | 349° |
| 2026-05-06 15:52 | -33.96189 | 18.59771 | 168 ft | 15 kts | 44° |
| 2026-05-06 15:53 | -33.96110 | 18.59865 | 168 ft | 17 kts | 46° |
| 2026-05-06 15:53 | -33.96037 | 18.59972 | 166 ft | 16 kts | 79° |
| 2026-05-06 15:53 | -33.96106 | 18.60036 | 166 ft | 3 kts | 166° |
| 2026-05-06 15:53 | -33.96109 | 18.60037 | 166 ft | 0 kts | 166° |
| 2026-05-06 15:54 | -33.96131 | 18.60044 | 166 ft | 17 kts | 165° |
| 2026-05-06 15:54 | -33.96477 | 18.60154 | 170 ft | 81 kts | 165° |
| 2026-05-06 15:54 | -33.97188 | 18.60385 | 160 ft | 129 kts | 165° |
| 2026-05-06 15:54 | -33.98167 | 18.60700 | 364 ft | 151 kts | 164° |
| 2026-05-06 15:55 | -33.99177 | 18.61054 | 966 ft | 152 kts | 162° |
| 2026-05-06 15:55 | -34.00189 | 18.61388 | 1586 ft | 151 kts | 163° |
| 2026-05-06 15:55 | -34.01224 | 18.61756 | 2027 ft | 164 kts | 154° |
| 2026-05-06 15:55 | -34.02050 | 18.62794 | 2256 ft | 189 kts | 111° |
| 2026-05-06 15:56 | -34.01999 | 18.64453 | 2537 ft | 216 kts | 76° |
| 2026-05-06 15:56 | -34.01345 | 18.66213 | 2851 ft | 243 kts | 67° |
| 2026-05-06 15:56 | -34.00489 | 18.68051 | 3443 ft | 257 kts | 64° |
| 2026-05-06 15:56 | -33.99568 | 18.69923 | 4251 ft | 262 kts | 64° |
| 2026-05-06 15:57 | -33.98633 | 18.71825 | 5079 ft | 266 kts | 65° |
| 2026-05-06 15:57 | -33.97990 | 18.73156 | 5610 ft | 269 kts | 65° |
| 2026-05-06 15:57 | -33.97043 | 18.75152 | 6399 ft | 274 kts | 65° |
| 2026-05-06 15:57 | -33.96868 | 18.75526 | 6535 ft | 275 kts | 65° |
| 2026-05-06 15:58 | -33.95986 | 18.77422 | 7207 ft | 279 kts | 66° |
| 2026-05-06 15:58 | -33.95037 | 18.79479 | 7937 ft | 283 kts | 66° |
| 2026-05-06 15:58 | -33.94077 | 18.81566 | 8673 ft | 287 kts | 66° |
| 2026-05-06 15:58 | -33.93102 | 18.83688 | 9413 ft | 291 kts | 66° |
| 2026-05-06 15:59 | -33.92116 | 18.85837 | 10119 ft | 295 kts | 66° |
| 2026-05-06 15:59 | -33.91098 | 18.88060 | 10458 ft | 313 kts | 66° |
| 2026-05-06 15:59 | -33.90015 | 18.90443 | 10601 ft | 336 kts | 65° |
| 2026-05-06 15:59 | -33.89257 | 18.92108 | 10710 ft | 349 kts | 65° |
| 2026-05-06 16:00 | -33.88068 | 18.94705 | 11205 ft | 357 kts | 65° |
| 2026-05-06 16:00 | -33.87153 | 18.96690 | 11634 ft | 361 kts | 65° |
| 2026-05-06 16:00 | -33.85926 | 18.99343 | 12221 ft | 365 kts | 65° |
| 2026-05-06 16:00 | -33.84682 | 19.02027 | 12784 ft | 369 kts | 65° |
| 2026-05-06 16:01 | -33.83427 | 19.04742 | 13367 ft | 374 kts | 65° |
| 2026-05-06 16:01 | -33.82158 | 19.07491 | 13926 ft | 379 kts | 65° |
| 2026-05-06 16:01 | -33.80873 | 19.10278 | 14457 ft | 383 kts | 65° |
| 2026-05-06 16:01 | -33.79573 | 19.13091 | 15018 ft | 385 kts | 64° |
| 2026-05-06 16:02 | -33.78269 | 19.15909 | 15531 ft | 387 kts | 64° |
| 2026-05-06 16:02 | -33.76952 | 19.18751 | 16062 ft | 390 kts | 64° |
| 2026-05-06 16:02 | -33.75633 | 19.21597 | 16597 ft | 392 kts | 64° |
| 2026-05-06 16:02 | -33.74304 | 19.24463 | 17152 ft | 394 kts | 63° |
| 2026-05-06 16:03 | -33.72961 | 19.27354 | 17686 ft | 397 kts | 63° |
| 2026-05-06 16:03 | -33.71613 | 19.30257 | 18230 ft | 399 kts | 63° |
| 2026-05-06 16:03 | -33.70256 | 19.33179 | 18715 ft | 402 kts | 63° |
| 2026-05-06 16:03 | -33.68892 | 19.36112 | 19169 ft | 404 kts | 63° |
| 2026-05-06 16:04 | -33.67513 | 19.39074 | 19619 ft | 408 kts | 63° |
| 2026-05-06 16:04 | -33.66050 | 19.42011 | 20063 ft | 412 kts | 56° |
| 2026-05-06 16:04 | -33.64295 | 19.44750 | 20501 ft | 416 kts | 53° |
| 2026-05-06 16:04 | -33.62502 | 19.47483 | 20936 ft | 419 kts | 53° |
| 2026-05-06 16:05 | -33.60692 | 19.50240 | 21368 ft | 422 kts | 53° |
| 2026-05-06 16:05 | -33.58869 | 19.53017 | 21778 ft | 425 kts | 53° |
| 2026-05-06 16:05 | -33.57035 | 19.55811 | 22190 ft | 428 kts | 53° |
| 2026-05-06 16:05 | -33.55192 | 19.58624 | 22582 ft | 431 kts | 53° |
| 2026-05-06 16:06 | -33.53334 | 19.61462 | 22963 ft | 434 kts | 53° |
| 2026-05-06 16:06 | -33.51466 | 19.64316 | 23361 ft | 436 kts | 53° |
| 2026-05-06 16:06 | -33.49589 | 19.67181 | 23741 ft | 439 kts | 53° |
| 2026-05-06 16:06 | -33.47693 | 19.70064 | 24075 ft | 441 kts | 53° |
| 2026-05-06 16:07 | -33.45791 | 19.72950 | 24439 ft | 442 kts | 53° |
| 2026-05-06 16:07 | -33.43884 | 19.75844 | 24800 ft | 443 kts | 53° |
| 2026-05-06 16:07 | -33.41970 | 19.78747 | 25150 ft | 445 kts | 53° |
| 2026-05-06 16:07 | -33.40049 | 19.81656 | 25503 ft | 446 kts | 53° |
| 2026-05-06 16:08 | -33.38126 | 19.84568 | 25851 ft | 447 kts | 53° |
| 2026-05-06 16:08 | -33.36194 | 19.87491 | 26203 ft | 448 kts | 53° |
| 2026-05-06 16:08 | -33.34259 | 19.90420 | 26546 ft | 449 kts | 53° |
| 2026-05-06 16:08 | -33.32319 | 19.93351 | 26894 ft | 451 kts | 53° |
| 2026-05-06 16:09 | -33.30368 | 19.96293 | 27265 ft | 452 kts | 54° |
| 2026-05-06 16:09 | -33.28381 | 19.99212 | 27610 ft | 454 kts | 52° |
| 2026-05-06 16:09 | -33.26314 | 20.02068 | 28041 ft | 453 kts | 51° |
| 2026-05-06 16:09 | -33.24205 | 20.04853 | 28539 ft | 451 kts | 50° |
| 2026-05-06 16:10 | -33.22084 | 20.07598 | 29093 ft | 449 kts | 50° |
| 2026-05-06 16:10 | -33.19970 | 20.10326 | 29619 ft | 446 kts | 50° |
| 2026-05-06 16:10 | -33.17876 | 20.13050 | 30146 ft | 444 kts | 50° |
| 2026-05-06 16:10 | -33.15808 | 20.15766 | 30572 ft | 441 kts | 51° |
| 2026-05-06 16:11 | -33.13756 | 20.18482 | 30974 ft | 440 kts | 51° |
| 2026-05-06 16:11 | -33.11714 | 20.21198 | 31356 ft | 439 kts | 51° |
| 2026-05-06 16:11 | -33.09677 | 20.23913 | 31737 ft | 439 kts | 51° |
| 2026-05-06 16:11 | -33.07641 | 20.26619 | 32109 ft | 438 kts | 51° |
| 2026-05-06 16:12 | -33.05602 | 20.29321 | 32501 ft | 438 kts | 51° |
| 2026-05-06 16:12 | -33.03568 | 20.32012 | 32885 ft | 437 kts | 50° |
| 2026-05-06 16:12 | -33.01536 | 20.34698 | 33267 ft | 436 kts | 50° |
| 2026-05-06 16:12 | -32.99505 | 20.37380 | 33646 ft | 436 kts | 50° |
| 2026-05-06 16:13 | -32.97473 | 20.40058 | 34012 ft | 436 kts | 50° |
| 2026-05-06 16:13 | -32.95441 | 20.42730 | 34304 ft | 436 kts | 50° |
| 2026-05-06 16:13 | -32.93402 | 20.45410 | 34530 ft | 437 kts | 50° |
| 2026-05-06 16:13 | -32.91355 | 20.48099 | 34743 ft | 439 kts | 50° |
| 2026-05-06 16:14 | -32.89303 | 20.50796 | 34954 ft | 441 kts | 50° |
| 2026-05-06 16:14 | -32.87237 | 20.53512 | 35057 ft | 444 kts | 50° |
| 2026-05-06 16:14 | -32.83036 | 20.59030 | 35082 ft | 457 kts | 50° |
| 2026-05-06 16:15 | -32.78755 | 20.64642 | 35078 ft | 463 kts | 49° |
| 2026-05-06 16:15 | -32.74365 | 20.70334 | 35080 ft | 465 kts | 49° |
| 2026-05-06 16:16 | -32.70038 | 20.75971 | 35076 ft | 466 kts | 50° |
| 2026-05-06 16:16 | -32.65695 | 20.81682 | 35073 ft | 467 kts | 50° |
| 2026-05-06 16:17 | -32.61334 | 20.87395 | 35072 ft | 467 kts | 50° |
| 2026-05-06 16:17 | -32.56946 | 20.93085 | 35052 ft | 468 kts | 49° |
| 2026-05-06 16:18 | -32.52716 | 20.98563 | 35047 ft | 468 kts | 49° |
| 2026-05-06 16:18 | -32.48317 | 21.04263 | 35046 ft | 469 kts | 49° |
| 2026-05-06 16:19 | -32.43901 | 21.09969 | 35047 ft | 470 kts | 49° |
| 2026-05-06 16:19 | -32.39476 | 21.15675 | 35041 ft | 471 kts | 49° |
| 2026-05-06 16:20 | -32.35028 | 21.21434 | 35031 ft | 471 kts | 49° |
| 2026-05-06 16:20 | -32.30588 | 21.27145 | 35027 ft | 472 kts | 49° |
| 2026-05-06 16:21 | -32.26129 | 21.32863 | 35024 ft | 473 kts | 49° |
| 2026-05-06 16:21 | -32.21674 | 21.38582 | 35013 ft | 473 kts | 49° |
| 2026-05-06 16:22 | -32.17218 | 21.44304 | 35019 ft | 474 kts | 48° |
| 2026-05-06 16:22 | -32.12753 | 21.50026 | 35017 ft | 474 kts | 48° |
| 2026-05-06 16:23 | -32.08304 | 21.55695 | 35013 ft | 474 kts | 47° |
| 2026-05-06 16:23 | -32.03817 | 21.61408 | 35004 ft | 475 kts | 47° |
| 2026-05-06 16:24 | -31.99304 | 21.67162 | 35006 ft | 475 kts | 47° |
| 2026-05-06 16:24 | -31.94810 | 21.72881 | 34999 ft | 476 kts | 47° |
| 2026-05-06 16:25 | -31.90305 | 21.78600 | 34997 ft | 476 kts | 47° |
| 2026-05-06 16:25 | -31.85821 | 21.84279 | 34988 ft | 477 kts | 47° |
| 2026-05-06 16:26 | -31.81308 | 21.89996 | 34990 ft | 477 kts | 46° |
| 2026-05-06 16:26 | -31.76789 | 21.95698 | 34992 ft | 477 kts | 46° |
| 2026-05-06 16:27 | -31.72276 | 22.01398 | 34996 ft | 476 kts | 46° |
| 2026-05-06 16:27 | -31.67753 | 22.07098 | 34987 ft | 476 kts | 46° |
| 2026-05-06 16:28 | -31.63239 | 22.12777 | 34985 ft | 476 kts | 46° |
| 2026-05-06 16:28 | -31.58721 | 22.18447 | 34982 ft | 475 kts | 46° |
| 2026-05-06 16:29 | -31.54205 | 22.24120 | 34975 ft | 475 kts | 46° |
| 2026-05-06 16:29 | -31.49692 | 22.29775 | 34978 ft | 475 kts | 45° |
| 2026-05-06 16:30 | -31.45937 | 22.34465 | 34981 ft | 474 kts | 45° |
| 2026-05-06 16:30 | -31.40667 | 22.41042 | 34969 ft | 474 kts | 45° |
| 2026-05-06 16:31 | -31.36161 | 22.46657 | 34970 ft | 473 kts | 45° |
| 2026-05-06 16:31 | -31.31661 | 22.52258 | 34956 ft | 472 kts | 45° |
| 2026-05-06 16:32 | -31.27162 | 22.57848 | 34953 ft | 472 kts | 45° |
| 2026-05-06 16:32 | -31.22660 | 22.63432 | 34946 ft | 471 kts | 45° |
| 2026-05-06 16:33 | -31.18169 | 22.69008 | 34943 ft | 471 kts | 45° |
| 2026-05-06 16:34 | -31.11445 | 22.77324 | 34937 ft | 471 kts | 44° |
| 2026-05-06 16:34 | -31.06947 | 22.82883 | 34934 ft | 471 kts | 44° |
| 2026-05-06 16:35 | -31.02438 | 22.88439 | 34929 ft | 471 kts | 44° |
| 2026-05-06 16:35 | -30.97925 | 22.93985 | 34921 ft | 471 kts | 44° |
| 2026-05-06 16:36 | -30.93373 | 22.99552 | 34919 ft | 471 kts | 43° |
| 2026-05-06 16:36 | -30.88877 | 23.05043 | 34919 ft | 471 kts | 43° |
| 2026-05-06 16:37 | -30.84317 | 23.10603 | 34917 ft | 471 kts | 43° |
| 2026-05-06 16:37 | -30.79796 | 23.16114 | 34915 ft | 471 kts | 43° |
| 2026-05-06 16:38 | -30.75307 | 23.21586 | 34917 ft | 471 kts | 43° |
| 2026-05-06 16:38 | -30.70786 | 23.27089 | 34923 ft | 470 kts | 43° |
| 2026-05-06 16:39 | -30.66265 | 23.32573 | 34917 ft | 470 kts | 42° |
| 2026-05-06 16:39 | -30.61754 | 23.38043 | 34916 ft | 469 kts | 42° |
| 2026-05-06 16:40 | -30.57244 | 23.43507 | 34916 ft | 468 kts | 42° |
| 2026-05-06 16:40 | -30.52744 | 23.48951 | 34914 ft | 467 kts | 41° |
| 2026-05-06 16:41 | -30.48248 | 23.54381 | 34916 ft | 466 kts | 41° |
| 2026-05-06 16:41 | -30.43761 | 23.59787 | 34911 ft | 465 kts | 41° |
| 2026-05-06 16:42 | -30.39285 | 23.65172 | 34910 ft | 463 kts | 41° |
| 2026-05-06 16:42 | -30.34819 | 23.70538 | 34911 ft | 462 kts | 40° |
| 2026-05-06 16:43 | -30.31084 | 23.75023 | 34909 ft | 461 kts | 40° |
| 2026-05-06 16:43 | -30.26631 | 23.80356 | 34910 ft | 460 kts | 40° |
| 2026-05-06 16:44 | -30.22195 | 23.85675 | 34908 ft | 459 kts | 40° |
| 2026-05-06 16:44 | -30.17767 | 23.90983 | 34901 ft | 458 kts | 39° |
| 2026-05-06 16:45 | -30.13338 | 23.96259 | 34901 ft | 457 kts | 39° |
| 2026-05-06 16:45 | -30.08916 | 24.01517 | 34903 ft | 456 kts | 39° |
| 2026-05-06 16:46 | -30.04518 | 24.06774 | 34905 ft | 455 kts | 39° |
| 2026-05-06 16:46 | -30.00123 | 24.12007 | 34908 ft | 454 kts | 38° |
| 2026-05-06 16:47 | -29.95726 | 24.17221 | 34912 ft | 452 kts | 38° |
| 2026-05-06 16:47 | -29.91344 | 24.22412 | 34913 ft | 451 kts | 38° |
| 2026-05-06 16:48 | -29.86973 | 24.27589 | 34915 ft | 450 kts | 37° |
| 2026-05-06 16:48 | -29.82583 | 24.32792 | 34912 ft | 449 kts | 37° |
| 2026-05-06 16:49 | -29.78229 | 24.37938 | 34914 ft | 448 kts | 37° |
| 2026-05-06 16:49 | -29.73885 | 24.43055 | 34921 ft | 446 kts | 37° |
| 2026-05-06 16:50 | -29.69553 | 24.48155 | 34921 ft | 445 kts | 36° |
| 2026-05-06 16:50 | -29.65235 | 24.53234 | 34928 ft | 443 kts | 36° |
| 2026-05-06 16:51 | -29.60932 | 24.58294 | 34928 ft | 442 kts | 36° |
| 2026-05-06 16:51 | -29.56638 | 24.63334 | 34939 ft | 441 kts | 36° |
| 2026-05-06 16:52 | -29.52351 | 24.68351 | 34937 ft | 439 kts | 36° |
| 2026-05-06 16:52 | -29.48073 | 24.73352 | 34940 ft | 438 kts | 36° |
| 2026-05-06 16:53 | -29.43816 | 24.78338 | 34939 ft | 437 kts | 36° |
| 2026-05-06 16:53 | -29.39566 | 24.83309 | 34948 ft | 436 kts | 35° |
| 2026-05-06 16:54 | -29.35353 | 24.88218 | 34948 ft | 434 kts | 35° |
| 2026-05-06 16:54 | -29.31119 | 24.93146 | 34953 ft | 433 kts | 35° |
| 2026-05-06 16:55 | -29.26901 | 24.98060 | 34963 ft | 432 kts | 35° |
| 2026-05-06 16:55 | -29.22682 | 25.02955 | 35024 ft | 436 kts | 40° |
| 2026-05-06 16:56 | -29.18323 | 25.07987 | 34968 ft | 452 kts | 41° |
| 2026-05-06 16:56 | -29.13838 | 25.13176 | 34972 ft | 466 kts | 41° |
| 2026-05-06 16:57 | -29.09224 | 25.18532 | 34975 ft | 480 kts | 41° |
| 2026-05-06 16:57 | -29.04463 | 25.24037 | 34979 ft | 494 kts | 41° |
| 2026-05-06 16:58 | -28.99564 | 25.29689 | 34979 ft | 505 kts | 41° |
| 2026-05-06 16:58 | -28.94600 | 25.35409 | 34981 ft | 507 kts | 41° |
| 2026-05-06 16:59 | -28.89632 | 25.41133 | 34985 ft | 508 kts | 41° |
| 2026-05-06 16:59 | -28.84647 | 25.46859 | 34987 ft | 508 kts | 41° |
| 2026-05-06 17:00 | -28.79655 | 25.52577 | 34987 ft | 509 kts | 41° |
| 2026-05-06 17:00 | -28.74666 | 25.58299 | 34987 ft | 509 kts | 41° |
| 2026-05-06 17:01 | -28.69678 | 25.64016 | 34987 ft | 509 kts | 41° |
| 2026-05-06 17:01 | -28.64681 | 25.69737 | 34991 ft | 509 kts | 40° |
| 2026-05-06 17:02 | -28.59678 | 25.75430 | 34999 ft | 509 kts | 40° |
| 2026-05-06 17:02 | -28.54672 | 25.81122 | 35001 ft | 509 kts | 40° |
| 2026-05-06 17:03 | -28.49670 | 25.86811 | 34998 ft | 508 kts | 40° |
| 2026-05-06 17:03 | -28.44675 | 25.92495 | 34999 ft | 508 kts | 40° |
| 2026-05-06 17:04 | -28.39670 | 25.98169 | 35010 ft | 508 kts | 40° |
| 2026-05-06 17:04 | -28.34657 | 26.03840 | 35008 ft | 508 kts | 40° |
| 2026-05-06 17:04 | -28.32152 | 26.06675 | 34701 ft | 508 kts | 38° |
| 2026-05-06 17:05 | -28.29769 | 26.09409 | 35891 ft | 461 kts | 34° |
| 2026-05-06 17:05 | -28.27611 | 26.11962 | 36625 ft | 435 kts | 33° |
| 2026-05-06 17:05 | -28.25593 | 26.14311 | 37754 ft | 403 kts | 32° |
| 2026-05-06 17:05 | -28.23607 | 26.16557 | 36942 ft | 409 kts | 31° |
| 2026-05-06 17:06 | -28.21522 | 26.18817 | 36005 ft | 418 kts | 31° |
| 2026-05-06 17:06 | -28.19409 | 26.21102 | 35351 ft | 421 kts | 32° |
| 2026-05-06 17:06 | -28.17310 | 26.23409 | 35078 ft | 419 kts | 32° |
| 2026-05-06 17:07 | -28.13151 | 26.28055 | 35016 ft | 421 kts | 33° |
| 2026-05-06 17:07 | -28.08986 | 26.32767 | 35016 ft | 424 kts | 33° |
| 2026-05-06 17:08 | -28.04808 | 26.37480 | 35019 ft | 424 kts | 33° |
| 2026-05-06 17:08 | -28.00609 | 26.42190 | 35022 ft | 426 kts | 33° |
| 2026-05-06 17:09 | -27.96402 | 26.46902 | 35018 ft | 426 kts | 33° |
| 2026-05-06 17:09 | -27.92180 | 26.51623 | 35009 ft | 427 kts | 33° |
| 2026-05-06 17:10 | -27.87951 | 26.56355 | 35010 ft | 428 kts | 33° |
| 2026-05-06 17:10 | -27.83718 | 26.61083 | 35000 ft | 429 kts | 33° |
| 2026-05-06 17:11 | -27.79463 | 26.65821 | 35000 ft | 430 kts | 33° |
| 2026-05-06 17:11 | -27.75200 | 26.70569 | 35000 ft | 431 kts | 33° |
| 2026-05-06 17:12 | -27.70927 | 26.75321 | 35008 ft | 432 kts | 33° |
| 2026-05-06 17:12 | -27.66642 | 26.80079 | 35004 ft | 433 kts | 33° |
| 2026-05-06 17:13 | -27.62348 | 26.84855 | 35007 ft | 434 kts | 33° |
| 2026-05-06 17:13 | -27.58039 | 26.89634 | 35002 ft | 435 kts | 33° |
| 2026-05-06 17:14 | -27.53720 | 26.94415 | 35014 ft | 436 kts | 33° |
| 2026-05-06 17:14 | -27.49390 | 26.99204 | 35009 ft | 437 kts | 33° |
| 2026-05-06 17:15 | -27.45050 | 27.03996 | 35008 ft | 437 kts | 33° |
| 2026-05-06 17:15 | -27.40677 | 27.08793 | 34603 ft | 439 kts | 33° |
| 2026-05-06 17:15 | -27.38458 | 27.11144 | 34261 ft | 437 kts | 32° |
| 2026-05-06 17:16 | -27.36225 | 27.13459 | 33905 ft | 437 kts | 32° |
| 2026-05-06 17:16 | -27.33983 | 27.15761 | 33513 ft | 437 kts | 32° |
| 2026-05-06 17:16 | -27.31728 | 27.18076 | 33118 ft | 439 kts | 32° |
| 2026-05-06 17:16 | -27.29471 | 27.20399 | 32431 ft | 443 kts | 32° |
| 2026-05-06 17:17 | -27.27165 | 27.22779 | 31399 ft | 453 kts | 33° |
| 2026-05-06 17:17 | -27.24873 | 27.25165 | 30988 ft | 446 kts | 33° |
| 2026-05-06 17:17 | -27.22613 | 27.27536 | 30429 ft | 444 kts | 33° |
| 2026-05-06 17:17 | -27.20361 | 27.29897 | 29831 ft | 441 kts | 33° |
| 2026-05-06 17:18 | -27.18127 | 27.32230 | 29272 ft | 436 kts | 33° |
| 2026-05-06 17:18 | -27.15913 | 27.34537 | 28727 ft | 432 kts | 33° |
| 2026-05-06 17:18 | -27.13720 | 27.36817 | 28189 ft | 427 kts | 33° |
| 2026-05-06 17:18 | -27.11551 | 27.39066 | 27654 ft | 423 kts | 33° |
| 2026-05-06 17:19 | -27.09395 | 27.41301 | 27131 ft | 420 kts | 33° |
| 2026-05-06 17:19 | -27.07283 | 27.43486 | 26605 ft | 416 kts | 33° |
| 2026-05-06 17:19 | -27.05139 | 27.45701 | 26083 ft | 413 kts | 33° |
| 2026-05-06 17:19 | -27.03055 | 27.47857 | 25588 ft | 410 kts | 34° |
| 2026-05-06 17:20 | -27.00966 | 27.50017 | 25088 ft | 408 kts | 34° |
| 2026-05-06 17:20 | -26.98880 | 27.52174 | 24606 ft | 406 kts | 34° |
| 2026-05-06 17:20 | -26.96805 | 27.54317 | 24127 ft | 404 kts | 34° |
| 2026-05-06 17:20 | -26.94741 | 27.56445 | 23668 ft | 402 kts | 35° |
| 2026-05-06 17:21 | -26.92687 | 27.58566 | 23160 ft | 400 kts | 35° |
| 2026-05-06 17:21 | -26.90648 | 27.60669 | 22711 ft | 397 kts | 35° |
| 2026-05-06 17:21 | -26.88615 | 27.62750 | 22271 ft | 396 kts | 35° |
| 2026-05-06 17:21 | -26.86588 | 27.64834 | 22000 ft | 395 kts | 36° |
| 2026-05-06 17:22 | -26.84566 | 27.66918 | 21752 ft | 395 kts | 36° |
| 2026-05-06 17:22 | -26.82547 | 27.68998 | 21507 ft | 394 kts | 36° |
| 2026-05-06 17:22 | -26.80531 | 27.71075 | 21262 ft | 394 kts | 36° |
| 2026-05-06 17:22 | -26.78521 | 27.73146 | 21021 ft | 393 kts | 36° |
| 2026-05-06 17:23 | -26.76516 | 27.75212 | 20698 ft | 388 kts | 36° |
| 2026-05-06 17:23 | -26.74543 | 27.77248 | 19882 ft | 384 kts | 37° |
| 2026-05-06 17:23 | -26.72590 | 27.79262 | 19096 ft | 380 kts | 37° |
| 2026-05-06 17:23 | -26.70659 | 27.81246 | 18800 ft | 379 kts | 36° |
| 2026-05-06 17:24 | -26.69351 | 27.82585 | 18511 ft | 376 kts | 36° |
| 2026-05-06 17:24 | -26.67423 | 27.84552 | 17595 ft | 373 kts | 36° |
| 2026-05-06 17:24 | -26.65513 | 27.86503 | 16744 ft | 369 kts | 36° |
| 2026-05-06 17:24 | -26.63629 | 27.88432 | 15938 ft | 365 kts | 36° |
| 2026-05-06 17:25 | -26.61771 | 27.90335 | 15146 ft | 361 kts | 36° |
| 2026-05-06 17:25 | -26.59931 | 27.92221 | 14382 ft | 357 kts | 36° |
| 2026-05-06 17:25 | -26.58114 | 27.94083 | 13608 ft | 352 kts | 36° |
| 2026-05-06 17:25 | -26.56319 | 27.95921 | 12791 ft | 348 kts | 36° |
| 2026-05-06 17:26 | -26.54541 | 27.97737 | 12010 ft | 344 kts | 36° |
| 2026-05-06 17:26 | -26.52783 | 27.99535 | 11257 ft | 340 kts | 36° |
| 2026-05-06 17:26 | -26.51055 | 28.01303 | 10543 ft | 336 kts | 36° |
| 2026-05-06 17:26 | -26.49358 | 28.03041 | 10242 ft | 319 kts | 36° |
| 2026-05-06 17:27 | -26.47784 | 28.04668 | 10002 ft | 303 kts | 36° |
| 2026-05-06 17:27 | -26.46255 | 28.06262 | 9491 ft | 297 kts | 37° |
| 2026-05-06 17:27 | -26.45259 | 28.07296 | 9171 ft | 294 kts | 37° |
| 2026-05-06 17:27 | -26.43823 | 28.08744 | 8490 ft | 296 kts | 37° |
| 2026-05-06 17:28 | -26.42274 | 28.10235 | 8098 ft | 287 kts | 37° |
| 2026-05-06 17:28 | -26.40806 | 28.11643 | 8008 ft | 269 kts | 36° |
| 2026-05-06 17:28 | -26.39432 | 28.12974 | 8020 ft | 259 kts | 36° |
| 2026-05-06 17:28 | -26.38083 | 28.14291 | 8023 ft | 258 kts | 37° |
| 2026-05-06 17:29 | -26.36726 | 28.15603 | 8004 ft | 258 kts | 36° |
| 2026-05-06 17:29 | -26.35337 | 28.16862 | 8004 ft | 255 kts | 25° |
| 2026-05-06 17:29 | -26.33734 | 28.17528 | 8011 ft | 239 kts | 9° |
| 2026-05-06 17:29 | -26.32161 | 28.18006 | 8007 ft | 231 kts | 9° |
| 2026-05-06 17:30 | -26.30621 | 28.18477 | 8011 ft | 229 kts | 9° |
| 2026-05-06 17:30 | -26.29094 | 28.18950 | 8009 ft | 227 kts | 9° |
| 2026-05-06 17:30 | -26.27627 | 28.19408 | 8022 ft | 209 kts | 9° |
| 2026-05-06 17:30 | -26.26481 | 28.19767 | 7966 ft | 196 kts | 8° |
| 2026-05-06 17:31 | -26.25188 | 28.20166 | 7770 ft | 190 kts | 8° |
| 2026-05-06 17:31 | -26.23920 | 28.20558 | 7543 ft | 187 kts | 9° |
| 2026-05-06 17:31 | -26.22719 | 28.20932 | 7334 ft | 172 kts | 8° |
| 2026-05-06 17:31 | -26.21585 | 28.21284 | 7092 ft | 167 kts | 7° |
| 2026-05-06 17:32 | -26.20474 | 28.21627 | 6875 ft | 165 kts | 7° |
| 2026-05-06 17:32 | -26.19379 | 28.21966 | 6673 ft | 162 kts | 7° |
| 2026-05-06 17:32 | -26.18295 | 28.22301 | 6452 ft | 161 kts | 8° |
| 2026-05-06 17:32 | -26.17218 | 28.22633 | 6155 ft | 159 kts | 10° |
| 2026-05-06 17:33 | -26.16156 | 28.22961 | 5935 ft | 158 kts | 11° |
| 2026-05-06 17:33 | -26.15107 | 28.23293 | 5720 ft | 156 kts | 11° |
| 2026-05-06 17:33 | -26.14071 | 28.23623 | 5567 ft | 150 kts | 10° |
| 2026-05-06 17:33 | -26.13238 | 28.23898 | 5589 ft | 138 kts | 13° |
| 2026-05-06 17:34 | -26.12306 | 28.24193 | 6133 ft | 141 kts | 11° |
| 2026-05-06 17:34 | -26.11313 | 28.24532 | 6681 ft | 156 kts | 12° |
| 2026-05-06 17:34 | -26.10277 | 28.24949 | 7296 ft | 160 kts | 12° |
| 2026-05-06 17:34 | -26.09248 | 28.25367 | 7343 ft | 152 kts | 12° |
| 2026-05-06 17:35 | -26.08244 | 28.25775 | 7049 ft | 159 kts | 12° |
| 2026-05-06 17:35 | -26.07185 | 28.26190 | 6958 ft | 170 kts | 11° |
| 2026-05-06 17:35 | -26.06065 | 28.26634 | 7504 ft | 171 kts | 12° |
| 2026-05-06 17:36 | -26.03654 | 28.27570 | 8002 ft | 207 kts | 12° |
| 2026-05-06 17:36 | -26.02177 | 28.28101 | 8015 ft | 236 kts | 12° |
| 2026-05-06 17:36 | -26.00555 | 28.28482 | 8013 ft | 236 kts | 351° |
| 2026-05-06 17:36 | -25.99039 | 28.27973 | 8012 ft | 225 kts | 320° |
| 2026-05-06 17:37 | -25.98076 | 28.26678 | 8010 ft | 217 kts | 288° |
| 2026-05-06 17:37 | -25.97956 | 28.25041 | 8033 ft | 216 kts | 258° |
| 2026-05-06 17:37 | -25.98410 | 28.23437 | 8011 ft | 218 kts | 251° |
| 2026-05-06 17:37 | -25.98951 | 28.21882 | 8010 ft | 219 kts | 250° |
| 2026-05-06 17:38 | -25.99525 | 28.20286 | 8011 ft | 220 kts | 250° |
| 2026-05-06 17:38 | -26.00083 | 28.18735 | 8009 ft | 219 kts | 250° |
| 2026-05-06 17:38 | -26.00715 | 28.17197 | 8010 ft | 221 kts | 237° |
| 2026-05-06 17:38 | -26.01923 | 28.16128 | 8013 ft | 230 kts | 205° |
| 2026-05-06 17:39 | -26.03486 | 28.15665 | 8009 ft | 234 kts | 196° |
| 2026-05-06 17:39 | -26.05093 | 28.15333 | 8011 ft | 235 kts | 195° |
| 2026-05-06 17:39 | -26.06699 | 28.15020 | 8012 ft | 234 kts | 195° |
| 2026-05-06 17:39 | -26.08300 | 28.14713 | 8010 ft | 234 kts | 195° |
| 2026-05-06 17:40 | -26.09934 | 28.14404 | 8008 ft | 235 kts | 195° |
| 2026-05-06 17:40 | -26.11523 | 28.14104 | 8008 ft | 234 kts | 195° |
| 2026-05-06 17:40 | -26.13131 | 28.13801 | 8012 ft | 235 kts | 195° |
| 2026-05-06 17:40 | -26.14743 | 28.13503 | 8012 ft | 235 kts | 195° |
| 2026-05-06 17:41 | -26.16352 | 28.13205 | 8011 ft | 234 kts | 195° |
| 2026-05-06 17:41 | -26.17956 | 28.12909 | 8008 ft | 234 kts | 195° |
| 2026-05-06 17:41 | -26.19567 | 28.12610 | 8009 ft | 235 kts | 195° |
| 2026-05-06 17:41 | -26.21152 | 28.12318 | 8005 ft | 225 kts | 195° |
| 2026-05-06 17:42 | -26.22681 | 28.12045 | 8010 ft | 221 kts | 195° |
| 2026-05-06 17:42 | -26.24200 | 28.11778 | 8012 ft | 221 kts | 195° |
| 2026-05-06 17:42 | -26.25718 | 28.11516 | 8007 ft | 221 kts | 195° |
| 2026-05-06 17:42 | -26.27235 | 28.11261 | 8010 ft | 220 kts | 194° |
| 2026-05-06 17:43 | -26.28780 | 28.11382 | 8009 ft | 231 kts | 164° |
| 2026-05-06 17:43 | -26.30127 | 28.12361 | 7942 ft | 233 kts | 143° |
| 2026-05-06 17:43 | -26.31312 | 28.13600 | 7690 ft | 234 kts | 140° |
| 2026-05-06 17:43 | -26.32469 | 28.14871 | 7428 ft | 233 kts | 140° |
| 2026-05-06 17:44 | -26.33621 | 28.16142 | 7173 ft | 233 kts | 139° |
| 2026-05-06 17:44 | -26.34718 | 28.17462 | 7029 ft | 235 kts | 124° |
| 2026-05-06 17:44 | -26.35085 | 28.19217 | 7002 ft | 238 kts | 79° |
| 2026-05-06 17:44 | -26.34373 | 28.20821 | 7015 ft | 231 kts | 36° |
| 2026-05-06 17:45 | -26.32982 | 28.21487 | 7018 ft | 214 kts | 352° |
| 2026-05-06 17:45 | -26.31568 | 28.21144 | 7012 ft | 209 kts | 338° |
| 2026-05-06 17:45 | -26.30178 | 28.20733 | 7020 ft | 200 kts | 339° |
| 2026-05-06 17:45 | -26.28893 | 28.20370 | 7009 ft | 182 kts | 339° |
| 2026-05-06 17:46 | -26.27715 | 28.20048 | 6994 ft | 169 kts | 342° |
| 2026-05-06 17:46 | -26.26522 | 28.20000 | 7013 ft | 171 kts | 357° |
| 2026-05-06 17:46 | -26.25348 | 28.20203 | 7012 ft | 170 kts | 4° |
| 2026-05-06 17:46 | -26.24224 | 28.20496 | 7027 ft | 164 kts | 6° |
| 2026-05-06 17:47 | -26.23123 | 28.20817 | 7016 ft | 163 kts | 7° |
| 2026-05-06 17:47 | -26.22043 | 28.21144 | 7016 ft | 164 kts | 7° |
| 2026-05-06 17:47 | -26.20942 | 28.21482 | 6904 ft | 164 kts | 7° |
| 2026-05-06 17:47 | -26.19851 | 28.21820 | 6729 ft | 162 kts | 7° |
| 2026-05-06 17:48 | -26.18766 | 28.22155 | 6532 ft | 162 kts | 7° |
| 2026-05-06 17:48 | -26.17686 | 28.22489 | 6305 ft | 160 kts | 9° |
| 2026-05-06 17:48 | -26.16619 | 28.22820 | 6052 ft | 158 kts | 11° |
| 2026-05-06 17:48 | -26.15567 | 28.23150 | 5824 ft | 156 kts | 11° |
| 2026-05-06 17:49 | -26.14527 | 28.23470 | 5621 ft | 155 kts | 11° |
| 2026-05-06 17:49 | -26.13552 | 28.23769 | 5551 ft | 128 kts | 15° |
| 2026-05-06 17:49 | -26.12861 | 28.23986 | 5545 ft | 78 kts | 16° |
| 2026-05-06 17:49 | -26.12462 | 28.24110 | 5537 ft | 51 kts | 15° |
| 2026-05-06 17:50 | -26.12131 | 28.24213 | 5530 ft | 48 kts | 15° |
| 2026-05-06 17:50 | -26.11930 | 28.24275 | 5528 ft | 12 kts | 15° |
| 2026-05-06 17:50 | -26.11860 | 28.24238 | 5528 ft | 13 kts | 290° |
| 2026-05-06 17:50 | -26.11843 | 28.24134 | 5526 ft | 15 kts | 261° |
| 2026-05-06 17:51 | -26.11923 | 28.24075 | 5530 ft | 15 kts | 194° |
| 2026-05-06 17:51 | -26.12034 | 28.24041 | 5531 ft | 17 kts | 195° |
| 2026-05-06 17:51 | -26.12147 | 28.24006 | 5532 ft | 17 kts | 195° |
| 2026-05-06 17:51 | -26.12258 | 28.23970 | 5535 ft | 16 kts | 196° |
| 2026-05-06 17:52 | -26.12366 | 28.23938 | 5539 ft | 16 kts | 195° |
| 2026-05-06 17:52 | -26.12474 | 28.23905 | 5538 ft | 16 kts | 195° |
| 2026-05-06 17:52 | -26.12584 | 28.23870 | 5543 ft | 16 kts | 196° |
| 2026-05-06 17:52 | -26.12692 | 28.23835 | 5545 ft | 16 kts | 196° |
| 2026-05-06 17:53 | -26.12807 | 28.23800 | 5541 ft | 18 kts | 195° |
| 2026-05-06 17:53 | -26.12924 | 28.23764 | 5544 ft | 17 kts | 195° |
| 2026-05-06 17:53 | -26.13042 | 28.23727 | 5548 ft | 18 kts | 195° |
| 2026-05-06 17:53 | -26.13127 | 28.23680 | 5546 ft | 17 kts | 240° |
| 2026-05-06 17:54 | -26.13122 | 28.23551 | 5546 ft | 17 kts | 276° |
| 2026-05-06 17:54 | -26.13120 | 28.23432 | 5546 ft | 14 kts | 242° |
| 2026-05-06 17:54 | -26.13205 | 28.23404 | 5547 ft | 9 kts | 187° |
| 2026-05-06 17:54 | -26.13232 | 28.23367 | 5548 ft | 7 kts | 272° |
| 2026-05-06 17:55 | -26.13227 | 28.23318 | 5547 ft | 3 kts | 276° |
| 2026-05-06 17:55 | -26.13226 | 28.23307 | 5547 ft | 0 kts | 276° |